Main page
METAR-TAF:

METAR-TAF

Airports :

Bamako, Mali

Bamako–Modibo Keïta International Airport

latitude: 12-32N, longitude: 007-57W, elevation: 380 m

Current weather observation

The report was made 41 minutes ago, at 18:30 UTC
Wind 6 kt from the North/Northeast
Temperature 30°C
Humidity 33%
Pressure 1013 hPa
Visibility 10 km or more
no clouds below 1500 m and no cumulonimbus

METAR: GABS 211830Z 02006KT CAVOK 30/12 Q1013 NOSIG

Time: 19:11 (19:11 UTC)

Forecast

The report was made 2 hours and 11 minutes ago, at 17:00 UTC
Forecast valid from 21 at 18 UTC to 22 at 24 UTC
Wind 6 kt from the East/Northeast
Visibility 10 km or more
no clouds below 1500 m and no cumulonimbus
Probability 40% :
Temporary
from 22 at 06 UTC to 22 at 11 UTC
Visibility: 4000 m
haze

TAF: GABS 211700Z 2118/2224 06006KT CAVOK PROB40 TEMPO 2206/2211 4000 HZ

Weather observations and forecasts of more than 4000 airports (METAR and TAF reports).

The available stations are represented by yellow and red dots on the map.

Hover mouse over dot to see the name of the station.

Then click to see weather observations and forecasts.

To change the map : click on the green buttons with a black cross to zoom in, on the green button with a dash to zoom out, or on the green arrows for adjacent maps.


METAR-TAF: